createdAt,value
2019-04-06T00:01:48.007Z,11.75
2019-04-06T00:04:18.721Z,11.96
2019-04-06T00:06:49.394Z,11.98
2019-04-06T00:09:20.114Z,11.64
2019-04-06T00:11:51.180Z,11.81
2019-04-06T00:14:21.882Z,11.75
2019-04-06T00:16:52.621Z,11.61
2019-04-06T00:19:23.323Z,11.57
2019-04-06T00:21:54.023Z,11.58
2019-04-06T00:24:24.705Z,11.51
2019-04-06T00:26:55.481Z,11.46
2019-04-06T00:29:26.164Z,11.58
2019-04-06T00:32:13.735Z,11.60
2019-04-06T00:34:44.473Z,11.64
2019-04-06T00:37:15.198Z,11.34
2019-04-06T00:39:45.873Z,11.30
2019-04-06T00:42:16.588Z,11.20
2019-04-06T00:44:47.338Z,11.39
2019-04-06T00:47:18.031Z,11.30
2019-04-06T00:49:48.684Z,11.16
2019-04-06T00:52:19.344Z,11.22
2019-04-06T00:54:50.071Z,11.36
2019-04-06T00:57:20.781Z,11.17
2019-04-06T00:59:51.434Z,11.29
2019-04-06T01:02:22.103Z,11.32
2019-04-06T01:04:52.811Z,11.43
2019-04-06T01:07:23.561Z,11.37
2019-04-06T01:09:54.348Z,11.37
2019-04-06T01:12:25.249Z,11.40
2019-04-06T01:14:55.960Z,11.23
2019-04-06T01:17:26.649Z,11.30
2019-04-06T01:19:57.322Z,11.36
2019-04-06T01:22:28.038Z,11.07
2019-04-06T01:24:58.865Z,11.18
2019-04-06T01:27:29.524Z,11.20
2019-04-06T01:30:00.389Z,11.18
2019-04-06T01:32:32.169Z,11.44
2019-04-06T01:35:02.970Z,11.39
2019-04-06T01:37:34.074Z,11.11
2019-04-06T01:40:05.267Z,11.10
2019-04-06T01:42:35.977Z,11.15
2019-04-06T01:45:07.103Z,11.11
2019-04-06T01:47:37.911Z,11.10
2019-04-06T01:50:08.922Z,10.96
2019-04-06T01:52:39.760Z,11.18
2019-04-06T01:55:11.644Z,11.14
2019-04-06T01:57:42.301Z,10.89
2019-04-06T02:00:14.436Z,10.97
2019-04-06T02:02:50.595Z,11.12
2019-04-06T02:05:21.321Z,11.25
2019-04-06T02:07:52.401Z,11.01
2019-04-06T02:10:24.558Z,11.16
2019-04-06T02:12:55.238Z,11.13
2019-04-06T02:15:25.995Z,11.12
2019-04-06T02:17:56.740Z,11.08
2019-04-06T02:20:27.389Z,11.10
2019-04-06T02:22:58.122Z,11.30
2019-04-06T02:25:28.867Z,11.20
2019-04-06T02:27:59.595Z,11.38
2019-04-06T02:30:37.289Z,11.46
2019-04-06T02:33:15.979Z,11.34
2019-04-06T02:35:52.456Z,11.11
2019-04-06T02:38:44.870Z,10.99
2019-04-06T02:41:25.152Z,10.83
2019-04-06T02:43:56.163Z,10.90
2019-04-06T02:46:26.827Z,11.01
2019-04-06T02:48:58.941Z,10.92
2019-04-06T02:51:29.618Z,10.92
2019-04-06T02:54:00.259Z,11.03
2019-04-06T02:56:44.864Z,11.10
2019-04-06T02:59:03.549Z,10.85
2019-04-06T03:01:34.251Z,10.98
2019-04-06T03:04:04.965Z,10.89
2019-04-06T03:06:37.224Z,11.03
2019-04-06T03:09:11.263Z,11.10
2019-04-06T03:11:40.830Z,11.12
2019-04-06T03:14:12.131Z,11.20
2019-04-06T03:16:42.919Z,11.43
2019-04-06T03:19:14.037Z,11.05
2019-04-06T03:21:46.114Z,11.05
2019-04-06T03:24:16.774Z,11.30
2019-04-06T03:26:59.880Z,11.01
2019-04-06T03:29:19.772Z,10.83
2019-04-06T03:31:51.728Z,10.85
2019-04-06T03:34:23.228Z,10.71
2019-04-06T03:36:54.523Z,10.96
2019-04-06T03:39:28.194Z,11.03
2019-04-06T03:41:58.897Z,10.87
2019-04-06T03:44:31.949Z,10.97
2019-04-06T03:47:02.694Z,10.74
2019-04-06T03:49:33.424Z,10.74
2019-04-06T03:52:06.400Z,10.81
2019-04-06T03:54:37.311Z,10.88
2019-04-06T03:57:15.985Z,10.93
2019-04-06T03:59:40.719Z,10.77
2019-04-06T04:02:11.398Z,10.80
2019-04-06T04:04:42.064Z,10.71
2019-04-06T04:07:12.753Z,10.67
2019-04-06T04:09:43.915Z,10.67
2019-04-06T04:12:14.661Z,10.74
2019-04-06T04:14:45.319Z,10.58
2019-04-06T04:17:17.032Z,10.85
2019-04-06T04:19:47.659Z,10.78
2019-04-06T04:22:18.320Z,10.69
2019-04-06T04:24:49.856Z,10.78
2019-04-06T04:27:28.848Z,10.65
2019-04-06T04:29:54.577Z,10.79
2019-04-06T04:32:25.206Z,10.86
2019-04-06T04:34:56.283Z,10.66
2019-04-06T04:37:27.005Z,10.56
2019-04-06T04:39:57.895Z,10.72
2019-04-06T04:42:28.992Z,10.71
2019-04-06T04:44:59.694Z,10.75
2019-04-06T04:47:30.598Z,10.75
2019-04-06T04:50:01.521Z,10.71
2019-04-06T04:52:32.246Z,10.98
2019-04-06T04:55:02.958Z,10.97
2019-04-06T04:57:40.115Z,10.89
2019-04-06T05:00:06.963Z,10.81
2019-04-06T05:02:37.610Z,10.95
2019-04-06T05:05:09.673Z,10.85
2019-04-06T05:07:40.709Z,11.01
2019-04-06T05:10:11.773Z,10.97
2019-04-06T05:12:42.376Z,10.93
2019-04-06T05:15:21.093Z,10.66
2019-04-06T05:17:51.723Z,10.65
2019-04-06T05:20:23.927Z,10.68
2019-04-06T05:22:55.941Z,10.81
2019-04-06T05:25:26.625Z,10.99
2019-04-06T05:27:57.409Z,10.80
2019-04-06T05:30:28.007Z,10.69
2019-04-06T05:32:58.578Z,10.78
2019-04-06T05:35:29.313Z,10.89
2019-04-06T05:38:00.114Z,10.96
2019-04-06T05:40:30.717Z,11.10
2019-04-06T05:43:01.345Z,11.04
2019-04-06T05:45:32.082Z,11.10
2019-04-06T05:48:02.834Z,10.99
2019-04-06T05:50:33.466Z,10.99
2019-04-06T05:53:04.101Z,10.77
2019-04-06T05:55:35.091Z,10.99
2019-04-06T05:58:09.789Z,10.87
2019-04-06T06:00:40.524Z,11.14
2019-04-06T06:03:11.386Z,10.75
2019-04-06T06:05:42.362Z,10.67
2019-04-06T06:08:13.033Z,10.62
2019-04-06T06:10:43.801Z,10.67
2019-04-06T06:13:14.458Z,10.85
2019-04-06T06:15:45.558Z,10.99
2019-04-06T06:18:25.672Z,10.96
2019-04-06T06:20:48.969Z,10.84
2019-04-06T06:23:19.891Z,10.95
2019-04-06T06:25:50.688Z,10.94
2019-04-06T06:28:21.701Z,11.01
2019-04-06T06:30:52.339Z,11.19
2019-04-06T06:33:23.025Z,10.99
2019-04-06T06:35:53.709Z,10.99
2019-04-06T06:38:24.717Z,10.99
2019-04-06T06:40:55.489Z,11.23
2019-04-06T06:43:26.251Z,11.27
2019-04-06T06:46:00.134Z,11.23
2019-04-06T06:48:30.884Z,11.11
2019-04-06T06:51:01.611Z,11.16
2019-04-06T06:53:32.421Z,10.87
2019-04-06T06:56:03.377Z,10.87
2019-04-06T06:58:34.068Z,10.98
2019-04-06T07:01:04.736Z,10.98
2019-04-06T07:03:35.775Z,10.85
2019-04-06T07:06:06.918Z,11.00
2019-04-06T07:08:39.598Z,10.93
2019-04-06T07:11:10.190Z,10.94
2019-04-06T07:13:40.957Z,11.02
2019-04-06T07:16:12.284Z,11.10
2019-04-06T07:18:42.961Z,10.98
2019-04-06T07:21:15.463Z,11.09
2019-04-06T07:23:45.992Z,11.20
2019-04-06T07:26:16.884Z,11.05
2019-04-06T07:28:47.561Z,10.88
2019-04-06T07:31:19.011Z,11.05
2019-04-06T07:33:49.540Z,11.10
2019-04-06T07:36:20.627Z,10.99
2019-04-06T07:38:51.205Z,11.23
2019-04-06T07:41:22.028Z,11.09
2019-04-06T07:43:54.581Z,11.14
2019-04-06T07:46:25.313Z,11.36
2019-04-06T07:51:30.524Z,11.29
2019-04-06T07:54:03.929Z,11.22
2019-04-06T07:56:35.048Z,11.51
2019-04-06T07:59:05.898Z,11.75
2019-04-06T08:01:36.538Z,11.82
2019-04-06T08:04:08.447Z,11.71
2019-04-06T08:06:40.613Z,11.63
2019-04-06T08:09:11.281Z,11.57
2019-04-06T08:11:42.008Z,11.30
2019-04-06T08:14:14.293Z,11.31
2019-04-06T08:16:45.695Z,11.32
2019-04-06T08:19:16.888Z,11.49
2019-04-06T08:21:47.747Z,11.92
2019-04-06T08:24:21.564Z,11.77
2019-04-06T08:26:52.369Z,12.01
2019-04-06T08:29:23.184Z,12.01
2019-04-06T08:31:53.957Z,11.91
2019-04-06T08:34:24.664Z,12.19
2019-04-06T08:36:55.406Z,12.30
2019-04-06T08:39:28.233Z,12.20
2019-04-06T08:41:58.961Z,11.98
2019-04-06T08:44:29.689Z,11.94
2019-04-06T08:47:00.786Z,11.97
2019-04-06T08:49:33.747Z,12.02
2019-04-06T08:52:04.696Z,12.33
2019-04-06T08:54:35.411Z,12.35
2019-04-06T08:57:06.445Z,12.37
2019-04-06T08:59:39.094Z,12.64
2019-04-06T09:02:09.994Z,12.57
2019-04-06T09:04:40.829Z,12.47
2019-04-06T09:07:11.753Z,12.48
2019-04-06T09:09:42.627Z,12.55
2019-04-06T09:12:15.113Z,12.38
2019-04-06T09:14:45.746Z,12.45
2019-04-06T09:17:16.831Z,12.20
2019-04-06T09:19:47.631Z,12.29
2019-04-06T09:22:18.371Z,12.66
2019-04-06T09:24:49.070Z,12.32
2019-04-06T09:27:20.357Z,12.49
2019-04-06T09:29:51.109Z,12.67
2019-04-06T09:32:22.256Z,12.71
2019-04-06T09:34:52.977Z,12.67
2019-04-06T09:37:25.205Z,12.21
2019-04-06T09:39:58.102Z,12.31
2019-04-06T09:42:30.704Z,12.19
2019-04-06T09:45:15.940Z,12.33
2019-04-06T09:47:52.890Z,12.49
2019-04-06T09:50:45.165Z,12.47
2019-04-06T09:54:27.340Z,12.59
2019-04-06T10:01:40.937Z,12.16
2019-04-06T10:08:41.669Z,12.34
2019-04-06T10:16:00.184Z,12.61
2019-04-06T10:21:57.876Z,12.60
2019-04-06T10:24:52.651Z,12.56
2019-04-06T10:36:32.353Z,12.71
2019-04-06T10:40:26.919Z,12.74
2019-04-06T10:44:11.972Z,13.32
2019-04-06T10:47:29.888Z,13.40
2019-04-06T10:58:21.100Z,12.77
2019-04-06T11:01:59.979Z,12.88
2019-04-06T11:05:10.765Z,12.95
2019-04-06T11:08:17.425Z,12.97
2019-04-06T11:11:20.850Z,13.01
2019-04-06T11:14:27.494Z,13.04
2019-04-06T11:18:15.262Z,13.40
2019-04-06T11:21:05.490Z,13.44
2019-04-06T11:24:52.053Z,13.77
2019-04-06T11:27:52.995Z,14.24
2019-04-06T11:30:42.161Z,14.49
2019-04-06T11:33:36.667Z,15.09
2019-04-06T11:36:25.072Z,15.49
2019-04-06T11:39:13.806Z,15.83
2019-04-06T11:42:13.375Z,16.15
2019-04-06T11:45:03.959Z,16.37
2019-04-06T11:47:52.623Z,16.33
2019-04-06T11:50:43.582Z,16.70
2019-04-06T11:53:49.965Z,16.50
2019-04-06T11:56:32.213Z,16.88
2019-04-06T11:59:29.597Z,17.32
2019-04-06T12:05:41.896Z,17.38
2019-04-06T12:14:35.126Z,20.45
2019-04-06T12:17:19.248Z,19.47
2019-04-06T12:20:07.709Z,19.72
2019-04-06T12:22:45.634Z,19.02
2019-04-06T12:25:41.595Z,18.41
2019-04-06T12:28:44.483Z,18.25
2019-04-06T12:31:26.197Z,18.99
2019-04-06T12:34:08.974Z,20.26
2019-04-06T12:36:59.786Z,19.11
2019-04-06T12:39:53.381Z,20.02
2019-04-06T12:42:47.442Z,22.41
2019-04-06T12:45:28.350Z,24.73
2019-04-06T12:48:28.852Z,24.20
2019-04-06T12:51:29.729Z,24.18
2019-04-06T12:54:10.700Z,23.61
2019-04-06T12:56:53.849Z,24.77
2019-04-06T12:59:42.710Z,25.25
2019-04-06T13:02:48.377Z,24.82
2019-04-06T13:05:41.226Z,26.02
2019-04-06T13:08:36.689Z,24.06
2019-04-06T13:11:34.573Z,22.24
2019-04-06T13:14:15.780Z,20.81
2019-04-06T13:17:11.829Z,20.18
2019-04-06T13:19:52.722Z,19.82
2019-04-06T13:22:41.741Z,19.44
2019-04-06T13:25:29.038Z,19.06
2019-04-06T13:28:20.053Z,18.85
2019-04-06T13:31:22.111Z,19.35
2019-04-06T13:34:19.987Z,19.74
2019-04-06T13:37:00.947Z,19.60
2019-04-06T13:40:04.497Z,19.41
2019-04-06T13:42:55.101Z,19.31
2019-04-06T13:45:45.956Z,19.61
2019-04-06T13:48:41.486Z,19.12
2019-04-06T13:51:29.627Z,18.64
2019-04-06T13:54:22.397Z,18.69
2019-04-06T13:57:06.250Z,19.10
2019-04-06T13:59:54.857Z,18.70
2019-04-06T14:02:46.224Z,18.66
2019-04-06T14:05:41.024Z,18.65
2019-04-06T14:08:57.724Z,18.73
2019-04-06T14:12:04.255Z,18.87
2019-04-06T14:14:52.640Z,20.07
2019-04-06T14:17:40.767Z,20.60
2019-04-06T14:20:19.907Z,20.54
2019-04-06T14:23:06.162Z,20.07
2019-04-06T14:25:54.623Z,19.94
2019-04-06T14:28:36.369Z,21.17
2019-04-06T14:31:28.255Z,21.33
2019-04-06T14:34:14.302Z,20.56
2019-04-06T14:37:02.362Z,19.59
2019-04-06T14:39:51.060Z,19.30
2019-04-06T14:42:46.657Z,19.04
2019-04-06T14:45:42.174Z,19.01
2019-04-06T14:48:31.831Z,19.30
2019-04-06T14:51:22.713Z,19.44
2019-04-06T14:53:59.639Z,18.73
2019-04-06T14:57:05.852Z,18.98
2019-04-06T14:59:53.213Z,19.03
2019-04-06T15:02:47.085Z,18.85
2019-04-06T15:05:25.277Z,18.64
2019-04-06T15:08:19.325Z,18.36
2019-04-06T15:11:07.494Z,18.44
2019-04-06T15:13:56.322Z,18.34
2019-04-06T15:16:53.244Z,18.61
2019-04-06T15:19:43.424Z,18.73
2019-04-06T15:22:41.285Z,19.18
2019-04-06T15:25:35.814Z,19.39
2019-04-06T15:28:43.389Z,19.45
2019-04-06T15:31:32.957Z,18.98
2019-04-06T15:34:40.876Z,18.20
2019-04-06T15:37:36.606Z,18.15
2019-04-06T15:40:18.724Z,18.24
2019-04-06T15:43:14.837Z,18.15
2019-04-06T15:46:14.109Z,18.03
2019-04-06T15:49:02.934Z,17.87
2019-04-06T15:51:40.456Z,17.95
2019-04-06T15:54:18.107Z,17.63
2019-04-06T15:57:14.038Z,17.77
2019-04-06T15:59:51.173Z,17.64
2019-04-06T16:02:30.228Z,17.36
2019-04-06T16:05:14.803Z,17.24
2019-04-06T16:08:02.089Z,17.10
2019-04-06T16:10:51.216Z,17.03
2019-04-06T16:13:40.893Z,16.84
2019-04-06T16:16:16.021Z,16.59
2019-04-06T16:19:01.369Z,16.57
2019-04-06T16:21:54.589Z,16.36
2019-04-06T16:24:50.734Z,16.30
2019-04-06T16:27:43.748Z,16.57
2019-04-06T16:30:42.838Z,16.57
2019-04-06T16:33:35.585Z,16.55
2019-04-06T16:36:26.007Z,16.52
2019-04-06T16:39:16.609Z,16.55
2019-04-06T16:42:15.738Z,16.69
2019-04-06T16:45:26.552Z,16.18
2019-04-06T16:48:19.364Z,16.48
2019-04-06T16:51:09.091Z,16.52
2019-04-06T16:53:54.991Z,16.26
2019-04-06T16:56:33.230Z,16.50
2019-04-06T16:59:26.057Z,16.61
2019-04-06T17:02:04.335Z,16.54
2019-04-06T17:04:52.601Z,16.33
2019-04-06T17:07:30.582Z,16.33
2019-04-06T17:10:23.260Z,16.39
2019-04-06T17:13:06.158Z,16.31
2019-04-06T17:15:47.334Z,16.32
2019-04-06T17:18:39.975Z,16.35
2019-04-06T17:21:32.916Z,16.16
2019-04-06T17:24:25.851Z,16.06
2019-04-06T17:27:05.938Z,16.05
2019-04-06T17:29:52.142Z,16.01
2019-04-06T17:32:42.488Z,15.97
2019-04-06T17:35:24.749Z,15.83
2019-04-06T17:38:23.824Z,15.75
2019-04-06T17:41:25.475Z,15.75
2019-04-06T17:44:21.453Z,15.56
2019-04-06T17:47:15.766Z,15.56
2019-04-06T17:50:09.278Z,15.25
2019-04-06T17:52:49.367Z,15.22
2019-04-06T17:55:36.264Z,15.37
2019-04-06T17:58:37.936Z,15.42
2019-04-06T18:01:30.837Z,15.17
2019-04-06T18:04:19.754Z,15.07
2019-04-06T18:07:15.582Z,15.03
2019-04-06T18:10:11.480Z,14.93
2019-04-06T18:12:51.487Z,14.97
2019-04-06T18:15:26.109Z,14.68
2019-04-06T18:17:59.047Z,14.72
2019-04-06T18:20:33.253Z,14.72
2019-04-06T18:23:05.427Z,14.77
2019-04-06T18:25:40.408Z,14.73
2019-04-06T18:28:15.029Z,14.67
2019-04-06T18:31:08.184Z,14.42
2019-04-06T18:34:23.259Z,14.45
2019-04-06T18:37:12.726Z,14.69
2019-04-06T18:39:43.713Z,14.47
2019-04-06T18:42:16.289Z,14.36
2019-04-06T18:44:47.200Z,14.19
2019-04-06T18:47:30.146Z,14.42
2019-04-06T18:50:05.633Z,14.37
2019-04-06T18:52:37.331Z,14.23
2019-04-06T18:55:11.642Z,14.19
2019-04-06T18:57:50.492Z,14.30
2019-04-06T19:00:35.858Z,14.19
2019-04-06T19:07:17.610Z,14.06
2019-04-06T19:10:09.876Z,14.01
2019-04-06T19:12:47.277Z,13.97
2019-04-06T19:15:28.506Z,13.90
2019-04-06T19:18:13.558Z,13.85
2019-04-06T19:20:51.642Z,13.75
2019-04-06T19:23:24.256Z,13.71
2019-04-06T19:26:01.945Z,13.79
2019-04-06T19:28:37.979Z,13.67
2019-04-06T19:36:08.866Z,13.49
2019-04-06T19:53:11.177Z,17.08
2019-04-06T19:55:42.191Z,14.87
2019-04-06T19:58:12.903Z,13.81
2019-04-06T20:00:44.087Z,13.23
2019-04-06T20:03:15.479Z,12.88
2019-04-06T20:05:46.703Z,12.66
2019-04-06T20:08:17.503Z,12.47
2019-04-06T20:10:48.641Z,12.35
2019-04-06T20:13:19.942Z,12.22
2019-04-06T20:15:50.747Z,12.16
2019-04-06T20:18:21.560Z,12.07
2019-04-06T20:20:52.246Z,11.98
2019-04-06T20:23:23.140Z,11.99
2019-04-06T20:25:53.772Z,11.94
2019-04-06T20:28:24.683Z,11.90
2019-04-06T20:30:55.485Z,11.84
2019-04-06T20:33:26.352Z,11.79
2019-04-06T20:35:57.282Z,11.77
2019-04-06T20:38:28.004Z,11.76
2019-04-06T20:40:58.757Z,11.69
2019-04-06T20:43:29.617Z,11.70
2019-04-06T20:46:00.900Z,11.66
2019-04-06T20:48:32.059Z,11.55
2019-04-06T20:51:02.721Z,11.53
2019-04-06T20:53:33.450Z,11.52
2019-04-06T20:56:04.471Z,11.53
2019-04-06T20:58:35.964Z,11.59
2019-04-06T21:01:07.892Z,11.57
2019-04-06T21:03:39.142Z,11.58
2019-04-06T21:06:09.789Z,11.63
2019-04-06T21:08:40.521Z,11.57
2019-04-06T21:11:14.397Z,11.57
2019-04-06T21:13:45.129Z,11.51
2019-04-06T21:16:16.865Z,11.49
2019-04-06T21:18:48.090Z,11.48
2019-04-06T21:21:19.412Z,11.53
2019-04-06T21:23:50.315Z,11.54
2019-04-06T21:26:21.525Z,11.48
2019-04-06T21:28:52.230Z,11.48
2019-04-06T21:31:23.212Z,11.45
2019-04-06T21:33:53.997Z,11.45
2019-04-06T21:36:25.383Z,11.45
2019-04-06T21:38:56.347Z,11.48
2019-04-06T21:41:27.835Z,11.41
2019-04-06T21:44:00.054Z,11.36
2019-04-06T21:46:31.424Z,11.29
2019-04-06T21:49:02.331Z,11.30
2019-04-06T21:51:34.645Z,11.32
2019-04-06T21:54:05.550Z,11.30
2019-04-06T21:56:36.283Z,11.28
2019-04-06T21:59:09.091Z,11.27
2019-04-06T22:01:40.253Z,11.29
2019-04-06T22:04:23.059Z,11.28
2019-04-06T22:06:43.497Z,11.29
2019-04-06T22:09:14.726Z,11.34
2019-04-06T22:11:46.388Z,11.38
2019-04-06T22:14:17.690Z,11.34
2019-04-06T22:16:48.585Z,11.33
2019-04-06T22:19:19.294Z,11.31
2019-04-06T22:21:50.515Z,11.31
2019-04-06T22:24:21.386Z,11.28
2019-04-06T22:26:52.037Z,11.33
2019-04-06T22:29:23.760Z,11.33
2019-04-06T22:31:54.600Z,11.33
2019-04-06T22:34:34.736Z,11.31
2019-04-06T22:36:58.039Z,11.32
2019-04-06T22:39:29.792Z,11.36
2019-04-06T22:42:00.597Z,11.40
2019-04-06T22:44:32.787Z,11.42
2019-04-06T22:47:03.631Z,11.44
2019-04-06T22:49:34.900Z,11.48
2019-04-06T22:52:05.667Z,11.51
2019-04-06T22:54:36.590Z,11.49
2019-04-06T22:57:08.021Z,11.52
2019-04-06T22:59:39.235Z,11.58
2019-04-06T23:02:11.960Z,11.76
2019-04-06T23:05:01.651Z,11.86
2019-04-06T23:07:32.616Z,11.89
2019-04-06T23:10:03.267Z,11.98
2019-04-06T23:12:34.113Z,12.07
2019-04-06T23:15:06.058Z,12.11
2019-04-06T23:17:36.839Z,12.14
2019-04-06T23:20:08.352Z,12.17
2019-04-06T23:22:39.002Z,12.23
2019-04-06T23:25:09.636Z,12.26
2019-04-06T23:27:40.458Z,12.22
2019-04-06T23:30:12.044Z,12.29
2019-04-06T23:32:42.904Z,12.30
2019-04-06T23:35:13.984Z,12.32
2019-04-06T23:37:45.045Z,12.37
2019-04-06T23:40:15.779Z,12.38
2019-04-06T23:42:46.820Z,12.41
2019-04-06T23:45:17.567Z,12.42
2019-04-06T23:47:48.394Z,12.42
2019-04-06T23:50:20.650Z,12.45
2019-04-06T23:52:51.578Z,12.44
2019-04-06T23:55:22.245Z,12.44
2019-04-06T23:57:53.326Z,12.44
